createdAt,value
2018-02-03T00:02:13.367Z,77.29
2018-02-03T00:04:42.434Z,77.45
2018-02-03T00:07:11.080Z,77.78
2018-02-03T00:09:39.388Z,77.91
2018-02-03T00:12:08.184Z,78.59
2018-02-03T00:14:36.479Z,78.76
2018-02-03T00:17:05.124Z,79.18
2018-02-03T00:19:33.515Z,79.10
2018-02-03T00:22:01.843Z,79.12
2018-02-03T00:24:30.148Z,79.54
2018-02-03T00:26:58.475Z,79.59
2018-02-03T00:29:26.559Z,79.44
2018-02-03T00:31:54.994Z,79.83
2018-02-03T00:34:23.643Z,80.00
2018-02-03T00:36:51.951Z,79.66
2018-02-03T00:39:20.314Z,79.45
2018-02-03T00:41:48.688Z,79.18
2018-02-03T00:44:17.000Z,79.56
2018-02-03T00:46:45.311Z,79.88
2018-02-03T00:49:13.646Z,79.75
2018-02-03T00:51:41.951Z,79.11
2018-02-03T00:54:11.630Z,79.23
2018-02-03T00:56:39.939Z,78.94
2018-02-03T00:59:09.007Z,79.09
2018-02-03T01:01:37.527Z,78.99
2018-02-03T01:04:06.955Z,79.50
2018-02-03T01:06:35.266Z,79.04
2018-02-03T01:09:03.567Z,79.13
2018-02-03T01:11:32.563Z,78.63
2018-02-03T01:14:00.863Z,78.72
2018-02-03T01:16:29.167Z,79.63
2018-02-03T01:18:58.281Z,79.91
2018-02-03T01:21:26.585Z,80.39
2018-02-03T01:23:54.899Z,80.35
2018-02-03T01:26:23.667Z,80.11
2018-02-03T01:28:52.032Z,79.82
2018-02-03T01:31:20.341Z,80.06
2018-02-03T01:33:49.118Z,79.85
2018-02-03T01:36:17.424Z,79.53
2018-02-03T01:38:45.748Z,79.69
2018-02-03T01:41:14.168Z,79.43
2018-02-03T01:43:43.352Z,79.18
2018-02-03T01:46:11.713Z,79.21
2018-02-03T01:51:14.025Z,79.65
2018-02-03T01:53:42.851Z,79.44
2018-02-03T01:56:11.244Z,79.58
2018-02-03T01:58:39.555Z,80.16
2018-02-03T02:01:08.646Z,79.44
2018-02-03T02:03:38.339Z,79.05
2018-02-03T02:06:06.671Z,78.65
2018-02-03T02:08:35.381Z,78.25
2018-02-03T02:11:04.008Z,78.84
2018-02-03T02:13:32.327Z,79.09
2018-02-03T02:16:00.640Z,79.62
2018-02-03T02:18:29.554Z,80.36
2018-02-03T02:20:57.862Z,81.65
2018-02-03T02:23:26.176Z,82.25
2018-02-03T02:25:55.243Z,82.70
2018-02-03T02:28:23.648Z,83.10
2018-02-03T02:30:51.956Z,83.54
2018-02-03T02:33:20.835Z,84.21
2018-02-03T02:35:49.285Z,85.25
2018-02-03T02:38:17.615Z,86.60
2018-02-03T02:40:45.951Z,87.46
2018-02-03T02:43:14.260Z,87.46
2018-02-03T02:45:43.351Z,87.75
2018-02-03T02:48:12.456Z,87.35
2018-02-03T02:50:41.535Z,88.15
2018-02-03T02:53:09.884Z,88.53
2018-02-03T02:55:38.230Z,88.65
2018-02-03T02:58:06.551Z,88.50
2018-02-03T03:00:35.159Z,88.23
2018-02-03T03:03:03.474Z,88.19
2018-02-03T03:05:31.855Z,88.09
2018-02-03T03:08:00.481Z,87.69
2018-02-03T03:10:28.787Z,87.46
2018-02-03T03:12:57.859Z,86.80
2018-02-03T03:15:26.240Z,86.05
2018-02-03T03:17:54.730Z,85.40
2018-02-03T03:20:23.067Z,84.55
2018-02-03T03:22:52.102Z,84.30
2018-02-03T03:25:20.447Z,83.54
2018-02-03T03:27:48.760Z,82.81
2018-02-03T03:30:17.936Z,82.19
2018-02-03T03:32:46.270Z,81.39
2018-02-03T03:35:15.333Z,81.36
2018-02-03T03:37:43.631Z,80.90
2018-02-03T03:40:11.935Z,80.39
2018-02-03T03:42:40.558Z,80.69
2018-02-03T03:45:09.141Z,81.02
2018-02-03T03:47:37.475Z,80.59
2018-02-03T03:50:05.841Z,81.11
2018-02-03T03:52:34.144Z,80.66
2018-02-03T03:55:02.453Z,80.08
2018-02-03T03:57:31.067Z,79.74
2018-02-03T03:59:59.375Z,79.85
2018-02-03T04:02:27.672Z,80.82
2018-02-03T04:04:56.028Z,82.44
2018-02-03T04:07:24.343Z,82.25
2018-02-03T04:09:52.651Z,82.05
2018-02-03T04:12:20.994Z,81.66
2018-02-03T04:14:49.307Z,81.51
2018-02-03T04:17:17.619Z,81.58
2018-02-03T04:19:45.948Z,81.97
2018-02-03T04:22:14.300Z,82.19
2018-02-03T04:24:42.619Z,82.24
2018-02-03T04:27:11.684Z,82.20
2018-02-03T04:29:40.013Z,81.30
2018-02-03T04:32:08.316Z,81.64
2018-02-03T04:34:36.693Z,81.44
2018-02-03T04:37:05.011Z,81.03
2018-02-03T04:39:34.076Z,80.95
2018-02-03T04:42:02.517Z,81.02
2018-02-03T04:44:30.831Z,80.69
2018-02-03T04:46:59.141Z,80.45
2018-02-03T04:49:28.251Z,80.16
2018-02-03T04:51:57.339Z,80.54
2018-02-03T04:54:25.680Z,80.61
2018-02-03T04:56:54.111Z,80.81
2018-02-03T04:59:22.421Z,81.22
2018-02-03T05:01:51.201Z,81.39
2018-02-03T05:04:19.571Z,81.61
2018-02-03T05:06:47.887Z,81.05
2018-02-03T05:09:16.203Z,80.74
2018-02-03T05:11:44.536Z,80.63
2018-02-03T05:14:13.661Z,81.51
2018-02-03T05:16:42.736Z,81.75
2018-02-03T05:19:11.079Z,81.80
2018-02-03T05:21:39.374Z,81.66
2018-02-03T05:24:07.675Z,81.80
2018-02-03T05:26:36.035Z,81.79
2018-02-03T05:29:04.347Z,81.70
2018-02-03T05:31:33.412Z,82.13
2018-02-03T05:34:01.744Z,81.80
2018-02-03T05:36:30.055Z,81.64
2018-02-03T05:38:58.896Z,81.40
2018-02-03T05:41:27.972Z,81.14
2018-02-03T05:43:56.279Z,80.94
2018-02-03T05:46:24.631Z,80.96
2018-02-03T05:48:52.943Z,80.88
2018-02-03T05:51:21.252Z,80.96
2018-02-03T05:53:49.899Z,81.66
2018-02-03T05:56:18.220Z,82.03
2018-02-03T05:58:46.527Z,82.07
2018-02-03T06:01:15.157Z,82.01
2018-02-03T06:03:43.459Z,82.37
2018-02-03T06:06:12.040Z,82.51
2018-02-03T06:08:40.559Z,82.56
2018-02-03T06:11:08.863Z,82.36
2018-02-03T06:13:37.171Z,82.70
2018-02-03T06:16:06.235Z,83.23
2018-02-03T06:18:34.549Z,83.07
2018-02-03T06:21:02.851Z,83.00
2018-02-03T06:23:32.007Z,82.73
2018-02-03T06:26:00.324Z,82.62
2018-02-03T06:28:28.628Z,82.41
2018-02-03T06:30:57.644Z,82.48
2018-02-03T06:33:25.956Z,82.42
2018-02-03T06:35:54.295Z,82.28
2018-02-03T06:38:22.647Z,82.12
2018-02-03T06:40:52.331Z,81.85
2018-02-03T06:43:20.652Z,81.62
2018-02-03T06:45:49.003Z,81.54
2018-02-03T06:48:17.312Z,82.00
2018-02-03T06:50:45.616Z,81.79
2018-02-03T06:53:14.448Z,81.37
2018-02-03T06:55:42.756Z,81.15
2018-02-03T06:58:11.082Z,81.71
2018-02-03T07:00:40.228Z,82.17
2018-02-03T07:03:08.539Z,83.07
2018-02-03T07:05:36.860Z,83.14
2018-02-03T07:08:05.208Z,82.75
2018-02-03T07:10:33.511Z,82.79
2018-02-03T07:13:03.111Z,82.94
2018-02-03T07:15:31.455Z,82.92
2018-02-03T07:17:59.770Z,82.95
2018-02-03T07:20:28.863Z,83.23
2018-02-03T07:22:58.220Z,83.13
2018-02-03T07:25:26.523Z,82.45
2018-02-03T07:27:54.845Z,82.01
2018-02-03T07:30:23.198Z,81.96
2018-02-03T07:32:52.288Z,82.13
2018-02-03T07:35:20.600Z,81.86
2018-02-03T07:37:48.947Z,81.75
2018-02-03T07:40:17.255Z,81.66
2018-02-03T07:42:45.559Z,81.04
2018-02-03T07:45:13.896Z,80.83
2018-02-03T07:47:42.989Z,80.17
2018-02-03T07:50:11.600Z,80.00
2018-02-03T07:52:40.479Z,80.04
2018-02-03T07:55:08.847Z,79.77
2018-02-03T07:57:37.936Z,79.47
2018-02-03T08:00:07.012Z,78.93
2018-02-03T08:02:35.443Z,78.65
2018-02-03T08:05:03.735Z,77.99
2018-02-03T08:07:32.036Z,77.72
2018-02-03T08:10:00.361Z,77.12
2018-02-03T08:12:29.213Z,76.89
2018-02-03T08:14:57.800Z,76.54
2018-02-03T08:17:26.099Z,76.40
2018-02-03T08:19:54.395Z,77.32
2018-02-03T08:22:22.751Z,76.71
2018-02-03T08:24:51.826Z,76.18
2018-02-03T08:27:20.172Z,75.66
2018-02-03T08:29:48.512Z,75.54
2018-02-03T08:32:16.856Z,74.62
2018-02-03T08:34:45.151Z,73.71
2018-02-03T08:37:14.267Z,74.73
2018-02-03T08:39:42.583Z,77.03
2018-02-03T08:42:10.887Z,77.18
2018-02-03T08:44:39.235Z,76.97
2018-02-03T08:47:08.078Z,76.41
2018-02-03T08:49:36.643Z,75.67
2018-02-03T08:52:05.031Z,75.52
2018-02-03T08:54:33.328Z,74.80
2018-02-03T08:57:01.635Z,74.09
2018-02-03T08:59:29.983Z,73.68
2018-02-03T09:01:58.283Z,74.03
2018-02-03T09:04:26.592Z,73.48
2018-02-03T09:06:55.012Z,72.54
2018-02-03T09:09:24.087Z,71.04
2018-02-03T09:12:05.167Z,68.68
2018-02-03T09:14:33.460Z,68.33
2018-02-03T09:17:01.764Z,67.19
2018-02-03T09:19:30.104Z,66.69
2018-02-03T09:21:59.167Z,65.19
2018-02-03T09:24:27.468Z,64.38
2018-02-03T09:26:55.916Z,64.12
2018-02-03T09:29:24.224Z,63.70
2018-02-03T09:31:52.519Z,61.73
2018-02-03T09:34:21.636Z,62.50
2018-02-03T09:36:50.026Z,59.55
2018-02-03T09:39:18.328Z,59.21
2018-02-03T09:41:46.651Z,58.19
2018-02-03T09:44:15.716Z,56.95
2018-02-03T09:46:44.020Z,57.31
2018-02-03T09:49:13.403Z,57.06
2018-02-03T09:51:41.705Z,55.76
2018-02-03T09:54:10.010Z,57.83
2018-02-03T09:56:38.663Z,62.83
2018-02-03T09:59:06.999Z,63.58
2018-02-03T10:01:35.317Z,62.22
2018-02-03T10:04:04.512Z,61.10
2018-02-03T10:06:32.811Z,59.45
2018-02-03T10:09:01.110Z,57.26
2018-02-03T10:11:29.474Z,55.79
2018-02-03T10:13:58.507Z,55.16
2018-02-03T10:16:26.803Z,55.66
2018-02-03T10:18:55.437Z,57.51
2018-02-03T10:21:23.736Z,57.83
2018-02-03T10:23:52.031Z,59.52
2018-02-03T10:26:21.003Z,61.11
2018-02-03T10:28:49.311Z,59.93
2018-02-03T10:31:17.612Z,57.88
2018-02-03T10:33:46.274Z,56.97
2018-02-03T10:36:14.575Z,55.87
2018-02-03T10:38:42.893Z,55.64
2018-02-03T10:41:11.234Z,57.09
2018-02-03T10:43:39.528Z,55.90
2018-02-03T10:46:07.833Z,56.69
2018-02-03T10:48:36.163Z,57.49
2018-02-03T10:51:04.880Z,57.42
2018-02-03T10:53:33.243Z,58.44
2018-02-03T10:56:01.547Z,58.98
2018-02-03T10:58:29.928Z,60.50
2018-02-03T11:01:03.675Z,62.17
2018-02-03T11:03:32.256Z,65.05
2018-02-03T11:06:01.247Z,65.44
2018-02-03T11:08:30.259Z,64.09
2018-02-03T11:10:58.555Z,64.30
2018-02-03T11:13:26.880Z,63.77
2018-02-03T11:15:55.008Z,62.86
2018-02-03T11:18:23.356Z,64.92
2018-02-03T11:20:51.940Z,67.25
2018-02-03T11:23:20.292Z,67.98
2018-02-03T11:25:48.634Z,67.15
2018-02-03T11:28:16.926Z,66.79
2018-02-03T11:30:45.462Z,67.56
2018-02-03T11:33:13.792Z,67.43
2018-02-03T11:35:42.099Z,66.93
2018-02-03T11:38:10.735Z,67.34
2018-02-03T11:40:39.670Z,67.83
2018-02-03T11:43:07.974Z,67.16
2018-02-03T11:45:36.939Z,65.61
2018-02-03T11:48:05.245Z,64.52
2018-02-03T11:50:33.547Z,64.08
2018-02-03T11:53:01.871Z,64.63
2018-02-03T11:55:30.172Z,62.83
2018-02-03T11:57:58.469Z,62.16
2018-02-03T12:00:27.187Z,63.37
2018-02-03T12:02:55.500Z,63.04
2018-02-03T12:05:23.824Z,63.28
2018-02-03T12:07:52.185Z,63.13
2018-02-03T12:10:20.547Z,63.89
2018-02-03T12:12:48.928Z,62.56
2018-02-03T12:15:17.284Z,62.89
2018-02-03T12:17:45.352Z,62.77
2018-02-03T12:20:13.658Z,63.61
2018-02-03T12:22:42.392Z,62.60
2018-02-03T12:25:10.835Z,61.96
2018-02-03T12:27:39.146Z,61.48
2018-02-03T12:30:07.746Z,61.98
2018-02-03T12:32:36.480Z,62.09
2018-02-03T12:35:04.845Z,61.70
2018-02-03T12:37:34.323Z,62.17
2018-02-03T12:40:02.635Z,62.13
2018-02-03T12:42:31.387Z,62.81
2018-02-03T12:44:59.734Z,63.22
2018-02-03T12:47:28.031Z,64.26
2018-02-03T12:49:56.343Z,64.11
2018-02-03T12:52:24.683Z,64.76
2018-02-03T12:54:53.000Z,64.46
2018-02-03T12:57:21.956Z,64.12
2018-02-03T12:59:50.296Z,64.15
2018-02-03T13:02:18.606Z,64.45
2018-02-03T13:04:46.927Z,63.70
2018-02-03T13:07:15.304Z,65.79
2018-02-03T13:09:44.385Z,66.00
2018-02-03T13:12:14.083Z,65.55
2018-02-03T13:14:42.434Z,63.71
2018-02-03T13:17:11.000Z,63.63
2018-02-03T13:19:39.730Z,62.70
2018-02-03T13:22:08.088Z,62.45
2018-02-03T13:24:36.496Z,63.93
2018-02-03T13:27:04.797Z,64.06
2018-02-03T13:29:34.467Z,64.83
2018-02-03T13:32:02.780Z,65.06
2018-02-03T13:34:31.368Z,65.76
2018-02-03T13:37:00.223Z,65.80
2018-02-03T13:39:29.371Z,65.33
2018-02-03T13:41:57.682Z,65.66
2018-02-03T13:44:26.019Z,65.80
2018-02-03T13:46:54.319Z,65.78
2018-02-03T13:49:22.615Z,65.07
2018-02-03T13:51:50.975Z,65.16
2018-02-03T13:54:19.968Z,65.41
2018-02-03T13:56:48.455Z,65.57
2018-02-03T13:59:17.088Z,65.07
2018-02-03T14:01:45.985Z,65.21
2018-02-03T14:04:15.071Z,64.45
2018-02-03T14:06:44.655Z,65.79
2018-02-03T14:09:13.587Z,65.97
2018-02-03T14:11:41.959Z,65.54
2018-02-03T14:14:10.255Z,65.35
2018-02-03T14:16:38.788Z,65.34
2018-02-03T14:19:07.143Z,65.90
2018-02-03T14:21:35.435Z,65.89
2018-02-03T14:24:09.178Z,64.77
2018-02-03T14:26:37.479Z,65.38
2018-02-03T14:29:05.780Z,66.16
2018-02-03T14:31:34.310Z,66.38
2018-02-03T14:34:02.607Z,65.45
2018-02-03T14:36:30.915Z,65.62
2018-02-03T14:38:59.335Z,66.37
2018-02-03T14:41:27.653Z,66.62
2018-02-03T14:43:55.955Z,66.80
2018-02-03T14:46:24.336Z,67.34
2018-02-03T14:48:52.607Z,67.09
2018-02-03T14:51:21.291Z,66.95
2018-02-03T14:53:50.000Z,67.51
2018-02-03T14:56:18.299Z,67.21
2018-02-03T14:58:46.652Z,68.57
2018-02-03T15:01:14.957Z,69.69
2018-02-03T15:03:43.260Z,70.86
2018-02-03T15:06:11.611Z,71.62
2018-02-03T15:08:40.683Z,70.88
2018-02-03T15:11:08.985Z,71.16
2018-02-03T15:13:38.100Z,71.20
2018-02-03T15:16:06.411Z,71.07
2018-02-03T15:18:34.723Z,71.49
2018-02-03T15:21:03.319Z,71.48
2018-02-03T15:23:32.403Z,71.38
2018-02-03T15:26:00.712Z,71.29
2018-02-03T15:28:29.141Z,70.81
2018-02-03T15:30:57.439Z,70.65
2018-02-03T15:33:25.735Z,70.45
2018-02-03T15:35:54.943Z,69.83
2018-02-03T15:38:23.243Z,68.71
2018-02-03T15:40:51.536Z,69.19
2018-02-03T15:43:20.119Z,68.21
2018-02-03T15:45:48.419Z,65.80
2018-02-03T15:48:17.012Z,64.23
2018-02-03T15:50:45.339Z,64.14
2018-02-03T15:53:13.640Z,64.46
2018-02-03T15:55:41.940Z,64.33
2018-02-03T15:58:10.303Z,64.74
2018-02-03T16:00:38.624Z,64.70
2018-02-03T16:03:07.691Z,64.68
2018-02-03T16:05:36.071Z,65.35
2018-02-03T16:08:04.351Z,65.43
2018-02-03T16:10:32.655Z,65.50
2018-02-03T16:13:01.248Z,65.57
2018-02-03T16:15:29.617Z,65.85
2018-02-03T16:17:57.927Z,66.22
2018-02-03T16:20:26.263Z,67.61
2018-02-03T16:22:55.323Z,68.94
2018-02-03T16:25:23.627Z,70.24
2018-02-03T16:27:52.243Z,71.63
2018-02-03T16:30:20.561Z,72.21
2018-02-03T16:32:48.872Z,72.78
2018-02-03T16:35:18.393Z,73.39
2018-02-03T16:37:46.692Z,73.95
2018-02-03T16:40:15.027Z,73.80
2018-02-03T16:42:43.351Z,74.05
2018-02-03T16:45:11.655Z,74.22
2018-02-03T16:47:40.008Z,73.99
2018-02-03T16:50:08.308Z,74.45
2018-02-03T16:52:36.647Z,74.57
2018-02-03T16:55:05.268Z,74.72
2018-02-03T16:57:33.575Z,73.96
2018-02-03T17:00:01.894Z,73.22
2018-02-03T17:02:30.592Z,72.90
2018-02-03T17:04:58.903Z,73.24
2018-02-03T17:07:27.211Z,73.48
2018-02-03T17:09:55.899Z,73.45
2018-02-03T17:12:24.199Z,73.43
2018-02-03T17:14:52.540Z,73.50
2018-02-03T17:17:21.139Z,73.97
2018-02-03T17:19:49.530Z,74.42
2018-02-03T17:22:17.852Z,74.93
2018-02-03T17:24:46.195Z,74.84
2018-02-03T17:27:14.515Z,75.04
2018-02-03T17:29:42.824Z,75.41
2018-02-03T17:32:11.176Z,75.89
2018-02-03T17:34:39.479Z,75.79
2018-02-03T17:37:13.416Z,76.16
2018-02-03T17:39:41.728Z,75.97
2018-02-03T17:42:10.031Z,76.43
2018-02-03T17:44:39.387Z,76.39
2018-02-03T17:47:07.755Z,75.62
2018-02-03T17:49:36.104Z,75.57
2018-02-03T17:52:04.464Z,75.31
2018-02-03T17:54:32.949Z,75.35
2018-02-03T17:57:07.071Z,75.54
2018-02-03T17:59:35.391Z,75.49
2018-02-03T18:02:03.708Z,74.83
2018-02-03T18:04:32.248Z,75.23
2018-02-03T18:07:05.348Z,75.07
2018-02-03T18:09:33.751Z,74.55
2018-02-03T18:12:02.385Z,74.65
2018-02-03T18:14:30.697Z,74.38
2018-02-03T18:16:59.048Z,73.96
2018-02-03T18:19:27.399Z,73.67
2018-02-03T18:21:55.702Z,73.50
2018-02-03T18:24:24.055Z,73.86
2018-02-03T18:26:52.363Z,74.28
2018-02-03T18:29:20.680Z,74.65
2018-02-03T18:31:49.039Z,74.08
2018-02-03T18:34:17.343Z,74.41
2018-02-03T18:36:46.413Z,74.54
2018-02-03T18:39:14.896Z,74.12
2018-02-03T18:41:43.205Z,73.79
2018-02-03T18:44:12.275Z,73.94
2018-02-03T18:46:40.619Z,74.82
2018-02-03T18:49:08.980Z,75.54
2018-02-03T18:51:37.289Z,75.05
2018-02-03T18:54:05.851Z,75.27
2018-02-03T18:56:34.155Z,75.47
2018-02-03T18:59:03.075Z,75.59
2018-02-03T19:01:31.957Z,75.72
2018-02-03T19:04:00.287Z,76.27
2018-02-03T19:06:28.600Z,75.95
2018-02-03T19:08:56.964Z,76.04
2018-02-03T19:11:25.276Z,76.23
2018-02-03T19:13:53.587Z,76.52
2018-02-03T19:16:21.942Z,76.64
2018-02-03T19:18:51.007Z,77.02
2018-02-03T19:21:19.316Z,77.13
2018-02-03T19:23:48.440Z,76.64
2018-02-03T19:26:16.735Z,76.71
2018-02-03T19:28:45.085Z,76.56
2018-02-03T19:31:13.883Z,76.53
2018-02-03T19:33:42.233Z,77.02
2018-02-03T19:36:10.588Z,77.47
2018-02-03T19:38:38.946Z,77.44
2018-02-03T19:41:07.251Z,77.14
2018-02-03T19:43:35.556Z,76.50
2018-02-03T19:46:03.963Z,76.60
2018-02-03T19:48:32.267Z,76.79
2018-02-03T19:51:00.617Z,76.53
2018-02-03T19:53:29.005Z,77.31
2018-02-03T19:55:57.303Z,77.14
2018-02-03T19:58:25.603Z,76.64
2018-02-03T20:00:54.002Z,76.99
2018-02-03T20:03:22.383Z,76.73
2018-02-03T20:05:50.447Z,76.79
2018-02-03T20:08:18.816Z,76.59
2018-02-03T20:10:47.983Z,76.43
2018-02-03T20:13:16.283Z,76.81
2018-02-03T20:15:44.699Z,76.79
2018-02-03T20:18:13.016Z,77.71
2018-02-03T20:20:41.320Z,77.81
2018-02-03T20:23:09.674Z,78.17
2018-02-03T20:25:38.028Z,78.31
2018-02-03T20:28:06.382Z,77.99
2018-02-03T20:30:34.768Z,79.31
2018-02-03T20:33:03.075Z,78.50
2018-02-03T20:35:31.389Z,78.87
2018-02-03T20:38:00.037Z,79.23
2018-02-03T20:40:28.349Z,79.98
2018-02-03T20:42:56.680Z,79.95
2018-02-03T20:45:25.122Z,79.57
2018-02-03T20:47:53.485Z,79.35
2018-02-03T20:50:21.862Z,78.72
2018-02-03T20:52:50.139Z,78.68
2018-02-03T20:55:18.456Z,79.33
2018-02-03T20:57:46.770Z,79.70
2018-02-03T21:00:15.126Z,79.74
2018-02-03T21:02:43.440Z,79.87
2018-02-03T21:05:11.743Z,79.03
2018-02-03T21:07:40.116Z,78.67
2018-02-03T21:10:09.249Z,78.75
2018-02-03T21:12:37.602Z,78.59
2018-02-03T21:15:06.270Z,78.84
2018-02-03T21:17:34.576Z,78.80
2018-02-03T21:20:02.940Z,79.20
2018-02-03T21:22:31.292Z,79.82
2018-02-03T21:24:59.650Z,79.95
2018-02-03T21:27:27.952Z,80.08
2018-02-03T21:29:56.308Z,79.99
2018-02-03T21:32:24.617Z,79.87
2018-02-03T21:34:52.969Z,81.06
2018-02-03T21:37:21.307Z,81.60
2018-02-03T21:39:49.607Z,81.40
2018-02-03T21:42:17.943Z,81.38
2018-02-03T21:44:46.300Z,80.95
2018-02-03T21:47:15.382Z,80.34
2018-02-03T21:49:43.776Z,79.87
2018-02-03T21:52:12.731Z,79.85
2018-02-03T21:54:40.795Z,79.81
2018-02-03T21:57:09.232Z,80.08
2018-02-03T21:59:38.424Z,81.04
2018-02-03T22:02:06.857Z,81.91
2018-02-03T22:04:35.163Z,82.29
2018-02-03T22:07:04.559Z,82.60
2018-02-03T22:09:32.940Z,83.00
2018-02-03T22:12:01.261Z,82.99
2018-02-03T22:14:29.610Z,83.21
2018-02-03T22:16:58.304Z,83.32
2018-02-03T22:19:26.840Z,82.94
2018-02-03T22:21:55.468Z,82.54
2018-02-03T22:24:23.775Z,82.60
2018-02-03T22:26:52.231Z,83.50
2018-02-03T22:29:20.864Z,84.00
2018-02-03T22:31:49.184Z,84.32
2018-02-03T22:34:17.518Z,84.04
2018-02-03T22:36:45.983Z,84.00
2018-02-03T22:39:14.442Z,83.32
2018-02-03T22:41:42.750Z,82.87
2018-02-03T22:44:11.451Z,82.51
2018-02-03T22:46:39.763Z,82.16
2018-02-03T22:49:08.071Z,82.20
2018-02-03T22:51:36.756Z,82.47
2018-02-03T22:54:05.203Z,83.05
2018-02-03T22:56:33.783Z,83.16
2018-02-03T22:59:02.380Z,82.97
2018-02-03T23:01:30.691Z,82.51
2018-02-03T23:03:58.995Z,82.20
2018-02-03T23:06:28.588Z,82.15
2018-02-03T23:08:56.901Z,82.33
2018-02-03T23:11:25.317Z,82.38
2018-02-03T23:13:53.679Z,82.02
2018-02-03T23:16:22.763Z,81.18
2018-02-03T23:18:51.068Z,80.52
2018-02-03T23:21:19.695Z,81.08
2018-02-03T23:23:47.995Z,81.14
2018-02-03T23:26:16.304Z,81.58
2018-02-03T23:28:45.436Z,80.94
2018-02-03T23:31:13.800Z,80.89
2018-02-03T23:33:42.358Z,81.01
2018-02-03T23:36:10.851Z,81.05
2018-02-03T23:38:39.164Z,81.23
2018-02-03T23:41:07.471Z,81.21
2018-02-03T23:43:35.700Z,80.60
2018-02-03T23:46:04.011Z,81.35
2018-02-03T23:48:32.184Z,81.68
2018-02-03T23:51:00.939Z,82.50
2018-02-03T23:53:29.255Z,83.02
2018-02-03T23:55:57.567Z,82.94
2018-02-03T23:58:26.049Z,82.96
